Saturday, June 25, 2016
03:24 UTC
  |  Log In   |  Register Free
Airport Search:

Hampton Roads Executive Airport
(KPVG)

Hampton Roads Executive Airport Diagram
No Airport Diagram Available

FAA data valid effective May 26 2016 - Jul 21 2016 (unless otherwise noted).

 
 
 
 
 
 
 
 
 
 
 
 
 
 
Current Aviation Weather for KPVG

Weather Summary


The most recent METAR observation for PVG was updated at: 12:55 UTC
METAR for KPVG is not available. Closest METAR is for KCPK
KPVG  (most recent observation was updatred at 25:03 UTC)
250315Z 00000KT 7SM FEW033 22/21 A3002 RMK AO1

KCPK  (9.2 nm NW)   (most recent observation was updated at 25:03 UTC)
250315Z AUTO 00000KT 10SM BKN029 BKN038 BKN047 24/22 A3000 RMK AO2 LTG DSNT NW T02410221

KSFQ  (9.4 nm NE)   (most recent observation was updated at 25:03 UTC)
250315Z AUTO 00000KT 10SM SCT033 SCT041 24/23 A3000 RMK AO2 T02360225

TAF for KPVG is not available.
KNGU  (12.2 nm SW)   (most recent observation was updatred at UTC)
2423/2523 08006KT 9999 VCSH FEW030 SCT040 BKN090 QNH2993INS TEMPO 2500/2502 6000 -TSRA SCT030CB OVC090 FM250200 05007KT 8000 -SHRA FEW008 SCT025 BKN070 QNH2995INS FM250700 06012KT 4000 -RA BR BKN006 OVC070 QNH2999INS FM251500 05015G20KT 9999 NSW SCT010 BKN050 QNH3004INS T22/2509Z T26/2516Z FN00062


KORF  (13.7 nm SW)   (most recent observation was updatred at 24:23 UTC)
242340Z 2500/2524 11005KT P6SM BKN100 FM250500 05004KT 4SM BR BKN025 OVC080 FM250900 05010KT 4SM BR OVC008 FM251500 04010KT P6SM OVC015 FM251900 05013KT P6SM BKN025 OVC040


KLFI  (18.7 nm SW)   (most recent observation was updatred at 25:01 UTC)
250100Z 2501/2607 12009KT 9999 SCT050 BKN100 QNH2995INS TEMPO 2501/2504 VRB15G20KT 6000 -TSRA BKN040CB OVC090 BECMG 2507/2508 07006KT 6000 BR BKN006 OVC015 QNH3000INS BECMG 2513/2514 08009KT 9999 NSW OVC006 QNH3005INS BECMG 2516/2517 07012KT 9999 SCT010 BKN050 QNH3010INS BECMG 2600/2601 08006KT 9999 FEW100 QNH3012INS TX28/2521Z TN20/2510Z
GlobalAir.com is loading additional information.
 Current Weather at PVG
72.0 F° (22.0 C°)

North winds at 0.0 mph
Pressure:
30.01 in
Humidity:
88%
Wind:
North at 0.0 mph
Dew Point:
68.0 F° (20.0 C°)
Visibility:
7.00 mi
PVG NOAA Radar




Find All Airport Services Find A Hotel Find A Rental Car Find A Golf Course Find A Restaurant $100 Hamburger



Airport Weather Forecast for KPVG

Translated METAR for KPVG (0315 UTC)
METAR:
KPVG 250315Z 00000KT 7SM FEW033 22/21 A3002 RMK AO1
Conditions at:
KPVG (Hampton Roads Executive, VA) observed 0315 UTC 24 June 2016
Temperature:
22°C (71.6°F)
Dewpoint:
21°C (69.8°F) [RH = 94.1]
Pressure:
30.02 inches Hg (1016.6 mb)
Winds:
from the N (000 degrees) at 0 mph (0 knots: 0 m/s)
Visibility:
7 mile(s)
Ceiling:
at least 12,000 feet AGL
Clouds:
Few Clouds at 3,300 feet AGL
Remarks:
site is automated and does NOT have a precipitation sensor

Translated TAF for KNGU (Norfolk Ns (Chambers Fld), VA) ( UTC)
TAF text:
KNGU 2423/2523 08006KT 9999 VCSH FEW030 SCT040 BKN090 QNH2993INS
Forecast period:
Friday Jun 24 2016 23:00 UTC - Saturday Jun 25 2016 23:00 UTC
Forecast type:
FROM: standard forecast or significant change
Winds:
from the E (080 degrees) at 6.9 mph (6 knots: 3.1 m/s)
Visibility:
Ceiling:
9,000 feet AGL
Clouds:
Few Clouds at 3,000 feet AGL
Scattered Clouds at 4,000 feet AGL
Broken Cloud Cover at 9,000 feet AGL
Weather:
Moderate In Vicinity Shower(s)
TAF text:
2500/2502 6000 -TSRA SCT030CB OVC090
Forecast period:
Sunday Jun 26 2016 00:00 UTC - Sunday Jun 26 2016 02:00 UTC
Forecast type:
FROM: standard forecast or significant change
Winds:
Visibility:
Ceiling:
9,000 feet AGL
Clouds:
Overcast Skies at 9,000 feet AGL
Weather:
Light Thunderstorm Rain
TAF text:
FM250200 05007KT 8000 -SHRA FEW008 SCT025 BKN070 QNH2995INS
Forecast period:
Saturday Jun 25 2016 02:00 UTC - Saturday Jun 25 2016 07:00 UTC
Forecast type:
FROM: standard forecast or significant change
Winds:
from the NE (050 degrees) at 8.1 mph (7 knots: 3.6 m/s)
Visibility:
Ceiling:
7,000 feet AGL
Clouds:
Few Clouds at 800 feet AGL
Scattered Clouds at 2,500 feet AGL
Broken Cloud Cover at 7,000 feet AGL
Weather:
Light Shower(s) Rain
TAF text:
FM250700 06012KT 4000 -RA BR BKN006 OVC070 QNH2999INS
Forecast period:
Saturday Jun 25 2016 07:00 UTC - Saturday Jun 25 2016 15:00 UTC
Forecast type:
FROM: standard forecast or significant change
Winds:
from the ENE (060 degrees) at 13.8 mph (12 knots: 6.2 m/s)
Visibility:
Ceiling:
600 feet AGL
Clouds:
Broken Cloud Cover at 600 feet AGL
Overcast Skies at 7,000 feet AGL
Weather:
Light Rain
TAF text:
FM251500 05015G20KT 9999 NSW SCT010 BKN050 QNH3004INS T22/2509Z T26/2516Z FN00062
Forecast period:
Saturday Jun 25 2016 15:00 UTC - Saturday Jun 25 2016 23:00 UTC
Forecast type:
FROM: standard forecast or significant change
Winds:
from the NE (050 degrees) at 17.3 mph (15 knots: 7.7 m/s)
gusting to 23 mph (20 knots: 10.3 m/s)
Visibility:
Ceiling:
5,000 feet AGL
Clouds:
Scattered Clouds at 1,000 feet AGL
Broken Cloud Cover at 5,000 feet AGL
Weather:
no significant weather observed at this time
FBO's on the Field
FBO Company Facility Photos Services Transportation Aviation Fuel Prices: Prices include tax
Catering Weather Repair Courtesy Rental Type 100LL JetA JetA+ MOGAS 8087
 
Hampton Roads Executive Airport

Currently rated 5 by 1 person
FS:Shell
Last Updated: Jun-13
Login to update fuel prices
SS:
Contact Hampton Roads Executive AirportMore FBO Information
 
Add another FBO Facility Photos Catering Weather Repair Courtesy Rental Type 100LL JetA JetA+ MOGAS 8087
Services Transportation Aviation Fuel Prices: Prices include tax


model-print
model-print
model-print
model-print